Boca Raton, FL

10:00 AM EDT on September 20, 2014 (GMT -0400)
Spanish Village | Change Station
CLOSE
Current Station
Personal Weather Station
Location: Boca Raton, FL
Elevation: 13 ft
Nearby Weather Stations

Elev 13 ft 26.36 °N, 80.09 °W | Updated 48 seconds ago

Partly Cloudy
Partly Cloudy
82.6 °F
Feels Like 92 °F
N
2.0
Wind Variable Wind from South
Gusts 2.0 mph

Today
High -- | Low -- °F
--% Chance of Precip.
Yesterday
High -- | Low -- °F
Precip. -- in
7:08 AM 7:19 PM
Waning Crescent, 12% visible
Pressure 29.94 in
Visibility 10.0 miles
Clouds Scattered Clouds 17000 ft
Mostly Cloudy 25000 ft
Heat Index 92 °F
Dew Point 78 °F
Humidity 87%
Rainfall 0.03 in
Snow Depth Not available.
UV 3 out of 12
Pollen 3.00 out of 12
Ozone Good
PM2.5 Good
Flu Activity Not available.
METAR KPMP 201353Z 22006KT 10SM SCT170 BKN250 28/24 A2993 RMK AO2 SLP137 T02830239

More Conditions Fewer Conditions

Pressure 29.94 in
Visibility 10.0 miles
Clouds Scattered Clouds 17000 ft
Mostly Cloudy 25000 ft
Heat Index 92 °F
Dew Point 78 °F
Humidity 87%
Rainfall 0.03 in
Snow Depth Not available.
UV 3 out of 12
Pollen 3.00 out of 12
Ozone Good
PM2.5 Good
Flu Activity Not available.
METAR KPMP 201353Z 22006KT 10SM SCT170 BKN250 28/24 A2993 RMK AO2 SLP137 T02830239

More Conditions Fewer Conditions

10-Day Weather Forecast

Almanac

Astronomy

Sep. 20, 2014 Rise Set
Actual Time 7:08 AM EDT 7:19 PM EDT
Civil Twilight 6:44 AM EDT 7:42 PM EDT
Nautical Twilight 6:18 AM EDT 8:08 PM EDT
Astronomical Twilight 5:50 AM EDT 8:36 PM EDT
Moon 4:01 AM EDT 5:08 PM EDT
Length of Visible Light 12h 57m
Length of Day
12h 10m
Tomorrow will be 1m 32s shorter.
Waning Crescent, 12% of the Moon is Illuminated
Today
Waning Crescent
Sep 24
New
Oct 1
First Quarter
Oct 8
Full
Oct 15
Last Quarter

Today's Extremes

State Highs State Lows

Community

WunderPhotos

Upload Photos

1,754,865 photos uploaded!

Nearby

Air Quality

  Air Quality AQ Index Pollutant
Yesterday Good
PM2.5
Yesterday Good
OZONE
Current Good
PM2.5
Current Good
OZONE
Saturday Good
OZONE
Saturday Good
PM2.5
Sunday Good
OZONE
Sunday Good
PM2.5
Monday Good
OZONE
Monday Good
PM2.5

Snow Depth

Station Depth Elevation
No new snow has been reported.

Earthquake Activity

City Distance Mag. Time & Date
No recent earthquake activity has been reported nearby.
Minimum magnitude displayed is 2.5.

Coastal Water Temperatures

Place Temperature
Lake Worth, FL 84.9 °F
Virginia Key, FL 84.0 °F

Nearby Weather Stations